createdAt,value
2022-12-23T00:02:04.376Z,20.63
2022-12-23T00:04:36.004Z,15.95
2022-12-23T00:07:08.186Z,16.17
2022-12-23T00:09:38.220Z,14.73
2022-12-23T00:12:26.049Z,12.98
2022-12-23T00:15:08.978Z,18.08
2022-12-23T00:17:40.979Z,18.42
2022-12-23T00:20:13.244Z,14.57
2022-12-23T00:23:03.219Z,12.93
2022-12-23T00:25:45.423Z,13.85
2022-12-23T00:28:21.188Z,17.35
2022-12-23T00:30:55.595Z,16.13
2022-12-23T00:33:29.190Z,16.05
2022-12-23T00:36:02.511Z,14.23
2022-12-23T00:38:50.323Z,15.57
2022-12-23T00:41:38.979Z,15.15
2022-12-23T00:44:09.979Z,13.98
2022-12-23T00:46:40.271Z,12.45
2022-12-23T00:49:27.540Z,10.90
2022-12-23T00:51:58.193Z,15.18
2022-12-23T00:54:29.995Z,11.48
2022-12-23T00:57:01.091Z,13.48
2022-12-23T00:59:33.050Z,11.95
2022-12-23T01:02:19.992Z,12.77
2022-12-23T01:05:08.633Z,15.32
2022-12-23T01:07:38.842Z,15.63
2022-12-23T01:10:11.284Z,12.88
2022-12-23T01:12:41.313Z,12.77
2022-12-23T01:15:12.591Z,17.85
2022-12-23T01:17:42.559Z,11.65
2022-12-23T01:20:13.627Z,12.68
2022-12-23T01:22:46.303Z,16.50
2022-12-23T01:25:17.811Z,11.25
2022-12-23T01:27:48.063Z,14.27
2022-12-23T01:30:21.146Z,25.90
2022-12-23T01:32:51.312Z,12.77
2022-12-23T01:35:21.215Z,14.95
2022-12-23T01:37:51.502Z,17.15
2022-12-23T01:40:24.392Z,17.30
2022-12-23T01:42:53.091Z,14.52
2022-12-23T01:45:29.424Z,20.27
2022-12-23T01:48:03.187Z,15.65
2022-12-23T01:50:38.424Z,11.48
2022-12-23T01:53:11.717Z,13.82
2022-12-23T01:55:49.384Z,15.57
2022-12-23T01:58:22.817Z,14.13
2022-12-23T02:01:10.504Z,18.17
2022-12-23T02:03:46.466Z,13.82
2022-12-23T02:06:40.799Z,21.98
2022-12-23T02:09:21.372Z,19.65
2022-12-23T02:12:30.716Z,13.18
2022-12-23T02:15:31.233Z,17.45
2022-12-23T02:18:24.577Z,14.52
2022-12-23T02:21:11.411Z,18.70
2022-12-23T02:24:32.065Z,19.27
2022-12-23T02:27:15.172Z,17.25
2022-12-23T02:30:23.797Z,19.85
2022-12-23T02:33:22.092Z,18.30
2022-12-23T02:36:10.732Z,18.55
2022-12-23T02:38:54.876Z,17.67
2022-12-23T02:41:39.590Z,19.67
2022-12-23T02:44:24.007Z,15.20
2022-12-23T02:47:01.805Z,18.55
2022-12-23T02:49:39.601Z,18.42
2022-12-23T02:52:18.197Z,16.73
2022-12-23T02:54:55.582Z,20.40
2022-12-23T02:57:32.909Z,20.48
2022-12-23T03:00:11.552Z,16.08
2022-12-23T03:02:53.029Z,14.15
2022-12-23T03:05:36.351Z,21.70
2022-12-23T03:08:15.461Z,24.25
2022-12-23T03:11:11.093Z,16.50
2022-12-23T03:14:04.459Z,21.98
2022-12-23T03:16:50.558Z,21.13
2022-12-23T03:19:32.202Z,22.95
2022-12-23T03:22:16.831Z,25.85
2022-12-23T03:24:58.634Z,19.58
2022-12-23T03:27:36.265Z,23.65
2022-12-23T03:30:13.745Z,22.25
2022-12-23T03:32:54.354Z,17.92
2022-12-23T03:35:28.523Z,21.75
2022-12-23T03:38:01.958Z,17.70
2022-12-23T03:40:36.696Z,18.77
2022-12-23T03:43:11.014Z,22.92
2022-12-23T03:45:44.896Z,19.27
2022-12-23T03:48:22.033Z,21.23
2022-12-23T03:50:53.778Z,23.80
2022-12-23T03:53:28.968Z,19.42
2022-12-23T03:56:04.026Z,17.48
2022-12-23T03:58:40.975Z,17.92
2022-12-23T04:01:19.712Z,18.30
2022-12-23T04:03:56.236Z,14.70
2022-12-23T04:06:28.689Z,22.98
2022-12-23T04:09:00.045Z,18.65
2022-12-23T04:11:30.092Z,17.20
2022-12-23T04:13:59.189Z,19.55
2022-12-23T04:16:29.366Z,21.80
2022-12-23T04:18:58.553Z,18.67
2022-12-23T04:21:27.778Z,25.88
2022-12-23T04:23:58.243Z,19.02
2022-12-23T04:26:27.434Z,20.65
2022-12-23T04:28:56.369Z,16.00
2022-12-23T04:31:25.645Z,20.80
2022-12-23T04:33:54.732Z,21.73
2022-12-23T04:36:23.756Z,23.33
2022-12-23T04:38:52.760Z,16.90
2022-12-23T04:41:24.424Z,19.58
2022-12-23T04:43:53.691Z,18.75
2022-12-23T04:46:22.882Z,20.02
2022-12-23T04:48:51.997Z,20.48
2022-12-23T04:51:21.034Z,16.83
2022-12-23T04:53:50.073Z,21.48
2022-12-23T04:56:19.130Z,19.83
2022-12-23T04:58:49.644Z,24.83
2022-12-23T05:01:18.690Z,16.58
2022-12-23T05:03:47.841Z,23.50
2022-12-23T05:06:16.818Z,19.00
2022-12-23T05:08:45.849Z,26.02
2022-12-23T05:11:15.001Z,24.60
2022-12-23T05:13:44.086Z,19.45
2022-12-23T05:16:14.544Z,22.30
2022-12-23T05:18:43.592Z,24.08
2022-12-23T05:21:12.663Z,18.98
2022-12-23T05:23:41.694Z,28.98
2022-12-23T05:26:11.293Z,21.70
2022-12-23T05:28:40.256Z,23.67
2022-12-23T05:31:10.343Z,28.17
2022-12-23T05:33:41.289Z,26.10
2022-12-23T05:36:10.929Z,28.05
2022-12-23T05:38:40.207Z,24.83
2022-12-23T05:41:09.444Z,20.25
2022-12-23T05:43:38.455Z,25.40
2022-12-23T05:46:07.655Z,21.67
2022-12-23T05:48:36.747Z,40.20
2022-12-23T05:51:07.358Z,43.25
2022-12-23T05:53:36.383Z,40.25
2022-12-23T05:56:06.699Z,36.10
2022-12-23T05:58:35.753Z,25.35
2022-12-23T06:01:05.858Z,27.70
2022-12-23T06:03:35.135Z,20.13
2022-12-23T06:06:04.368Z,21.10
2022-12-23T06:08:34.806Z,26.60
2022-12-23T06:11:06.531Z,17.95
2022-12-23T06:13:36.054Z,18.10
2022-12-23T06:16:05.697Z,24.15
2022-12-23T06:18:35.077Z,15.68
2022-12-23T06:21:04.198Z,24.92
2022-12-23T06:23:34.617Z,23.85
2022-12-23T06:26:04.668Z,19.08
2022-12-23T06:28:33.677Z,23.20
2022-12-23T06:31:02.766Z,19.67
2022-12-23T06:33:31.849Z,20.80
2022-12-23T06:36:00.996Z,26.55
2022-12-23T06:38:29.983Z,18.00
2022-12-23T06:41:00.489Z,21.25
2022-12-23T06:43:29.522Z,21.27
2022-12-23T06:45:58.625Z,18.77
2022-12-23T06:48:27.680Z,22.13
2022-12-23T06:50:56.720Z,22.00
2022-12-23T06:53:25.792Z,17.35
2022-12-23T06:56:03.068Z,17.83
2022-12-23T06:58:32.217Z,18.58
2022-12-23T07:01:01.383Z,22.58
2022-12-23T07:03:30.482Z,23.88
2022-12-23T07:05:59.541Z,21.50
2022-12-23T07:08:28.600Z,20.00
2022-12-23T07:11:01.269Z,26.38
2022-12-23T07:13:30.343Z,16.83
2022-12-23T07:15:59.747Z,20.20
2022-12-23T07:18:30.922Z,22.52
2022-12-23T07:21:02.469Z,19.58
2022-12-23T07:23:32.106Z,17.30
2022-12-23T07:26:02.841Z,21.20
2022-12-23T07:28:32.066Z,21.85
2022-12-23T07:31:01.202Z,17.45
2022-12-23T07:33:30.320Z,22.98
2022-12-23T07:36:00.507Z,19.50
2022-12-23T07:38:29.539Z,16.73
2022-12-23T07:40:58.556Z,18.52
2022-12-23T07:43:28.928Z,22.10
2022-12-23T07:46:00.821Z,21.20
2022-12-23T07:48:30.367Z,28.27
2022-12-23T07:51:02.903Z,20.23
2022-12-23T07:53:31.964Z,22.23
2022-12-23T07:56:00.915Z,22.48
2022-12-23T07:58:31.395Z,24.92
2022-12-23T08:01:04.914Z,27.15
2022-12-23T08:03:34.411Z,20.88
2022-12-23T08:06:05.103Z,24.58
2022-12-23T08:08:34.793Z,25.45
2022-12-23T08:11:05.375Z,26.55
2022-12-23T08:13:38.309Z,22.38
2022-12-23T08:16:08.735Z,23.75
2022-12-23T08:18:39.184Z,30.58
2022-12-23T08:21:11.498Z,21.45
2022-12-23T08:23:40.569Z,23.23
2022-12-23T08:26:11.668Z,27.95
2022-12-23T08:28:43.857Z,27.63
2022-12-23T08:31:14.876Z,30.42
2022-12-23T08:33:45.661Z,19.95
2022-12-23T08:36:22.483Z,32.85
2022-12-23T08:38:53.366Z,20.83
2022-12-23T08:41:24.416Z,19.48
2022-12-23T08:43:55.040Z,27.00
2022-12-23T08:46:24.404Z,28.75
2022-12-23T08:48:54.100Z,25.73
2022-12-23T08:51:25.028Z,21.17
2022-12-23T08:54:00.211Z,22.77
2022-12-23T08:56:32.639Z,26.02
2022-12-23T08:59:04.502Z,28.95
2022-12-23T09:01:35.976Z,19.00
2022-12-23T09:04:06.036Z,20.42
2022-12-23T09:06:37.843Z,21.33
2022-12-23T09:09:07.869Z,18.35
2022-12-23T09:11:37.317Z,26.27
2022-12-23T09:14:10.304Z,21.73
2022-12-23T09:16:39.732Z,22.27
2022-12-23T09:19:09.175Z,20.45
2022-12-23T09:21:38.534Z,17.67
2022-12-23T09:24:08.028Z,25.92
2022-12-23T09:26:37.113Z,13.70
2022-12-23T09:29:07.564Z,17.85
2022-12-23T09:31:38.059Z,14.02
2022-12-23T09:34:07.676Z,20.88
2022-12-23T09:36:36.760Z,22.85
2022-12-23T09:39:06.209Z,17.75
2022-12-23T09:41:55.729Z,15.52
2022-12-23T09:44:44.848Z,22.58
2022-12-23T09:47:22.186Z,18.35
2022-12-23T09:49:56.336Z,20.67
2022-12-23T09:52:32.259Z,14.35
2022-12-23T09:55:01.848Z,18.45
2022-12-23T09:57:38.856Z,17.27
2022-12-23T10:00:15.352Z,20.30
2022-12-23T10:02:55.749Z,20.17
2022-12-23T10:05:37.151Z,17.15
2022-12-23T10:08:14.132Z,26.83
2022-12-23T10:10:49.652Z,18.23
2022-12-23T10:13:29.873Z,19.35
2022-12-23T10:16:06.011Z,13.60
2022-12-23T10:18:50.989Z,13.57
2022-12-23T10:21:27.766Z,18.95
2022-12-23T10:23:57.596Z,18.73
2022-12-23T10:26:32.657Z,23.50
2022-12-23T10:29:19.703Z,13.40
2022-12-23T10:32:03.038Z,19.90
2022-12-23T10:34:48.668Z,13.52
2022-12-23T10:37:25.712Z,15.20
2022-12-23T10:40:05.390Z,12.00
2022-12-23T10:42:40.985Z,15.60
2022-12-23T10:45:30.089Z,11.45
2022-12-23T10:48:15.659Z,12.20
2022-12-23T10:50:56.774Z,19.42
2022-12-23T10:53:37.112Z,17.55
2022-12-23T10:56:08.433Z,17.67
2022-12-23T10:58:42.037Z,13.23
2022-12-23T11:01:18.912Z,14.63
2022-12-23T11:04:03.740Z,13.50
2022-12-23T11:06:37.509Z,9.73
2022-12-23T11:09:08.585Z,11.95
2022-12-23T11:11:56.794Z,8.10
2022-12-23T11:14:34.808Z,7.50
2022-12-23T11:17:05.073Z,9.23
2022-12-23T11:19:35.597Z,18.25
2022-12-23T11:22:05.775Z,14.35
2022-12-23T11:24:41.179Z,15.20
2022-12-23T11:27:17.260Z,12.32
2022-12-23T11:29:50.850Z,16.23
2022-12-23T11:32:23.528Z,12.10
2022-12-23T11:34:55.503Z,13.20
2022-12-23T11:37:37.250Z,14.73
2022-12-23T11:40:08.877Z,16.75
2022-12-23T11:42:37.930Z,17.75
2022-12-23T11:45:09.452Z,10.25
2022-12-23T11:47:42.161Z,12.18
2022-12-23T11:50:29.523Z,11.90
2022-12-23T11:53:06.235Z,11.52
2022-12-23T11:55:35.605Z,17.08
2022-12-23T11:58:05.053Z,15.48
2022-12-23T12:00:41.347Z,17.45
2022-12-23T12:03:19.121Z,16.52
2022-12-23T12:05:54.368Z,16.48
2022-12-23T12:08:34.594Z,17.25
2022-12-23T12:11:08.864Z,16.83
2022-12-23T12:13:41.808Z,16.52
2022-12-23T12:16:30.108Z,18.75
2022-12-23T12:19:04.359Z,16.35
2022-12-23T12:21:39.342Z,16.17
2022-12-23T12:24:19.324Z,19.58
2022-12-23T12:26:52.927Z,22.77
2022-12-23T12:29:28.685Z,20.10
2022-12-23T12:32:00.775Z,21.77
2022-12-23T12:34:40.056Z,18.50
2022-12-23T12:37:23.248Z,17.88
2022-12-23T12:39:58.149Z,17.80
2022-12-23T12:42:32.116Z,17.55
2022-12-23T12:45:14.065Z,18.33
2022-12-23T12:47:54.524Z,14.05
2022-12-23T12:50:30.308Z,16.23
2022-12-23T12:53:12.388Z,16.80
2022-12-23T12:55:46.402Z,10.50
2022-12-23T12:58:21.201Z,16.25
2022-12-23T13:01:03.621Z,12.93
2022-12-23T13:04:06.540Z,13.38
2022-12-23T13:06:45.916Z,12.77
2022-12-23T13:09:29.001Z,15.95
2022-12-23T13:12:06.873Z,15.45
2022-12-23T13:14:48.371Z,14.68
2022-12-23T13:17:25.786Z,14.32
2022-12-23T13:20:01.976Z,19.52
2022-12-23T13:22:34.172Z,14.95
2022-12-23T13:25:11.933Z,11.30
2022-12-23T13:27:49.639Z,13.70
2022-12-23T13:30:21.605Z,13.63
2022-12-23T13:33:19.791Z,13.82
2022-12-23T13:36:07.083Z,25.90
2022-12-23T13:39:00.215Z,21.90
2022-12-23T13:41:34.534Z,19.48
2022-12-23T13:44:05.620Z,24.00
2022-12-23T13:46:50.979Z,14.85
2022-12-23T13:49:31.252Z,15.90
2022-12-23T13:52:18.838Z,14.80
2022-12-23T13:54:59.405Z,11.57
2022-12-23T13:57:47.605Z,16.35
2022-12-23T14:00:30.699Z,13.57
2022-12-23T14:03:24.151Z,12.88
2022-12-23T14:05:54.491Z,18.52
2022-12-23T14:08:33.195Z,13.65
2022-12-23T14:11:05.040Z,13.82
2022-12-23T14:13:42.061Z,13.30
2022-12-23T14:16:28.209Z,12.13
2022-12-23T14:19:27.914Z,12.57
2022-12-23T14:22:07.707Z,14.82
2022-12-23T14:25:18.990Z,16.40
2022-12-23T14:27:58.014Z,20.75
2022-12-23T14:30:35.432Z,12.85
2022-12-23T14:33:15.187Z,19.38
2022-12-23T14:35:59.386Z,16.00
2022-12-23T14:38:31.587Z,17.02
2022-12-23T14:41:17.557Z,12.60
2022-12-23T14:43:59.895Z,15.75
2022-12-23T14:46:57.170Z,13.60
2022-12-23T14:49:40.175Z,12.10
2022-12-23T14:52:44.253Z,20.25
2022-12-23T14:55:42.651Z,10.48
2022-12-23T14:58:29.145Z,12.80
2022-12-23T15:01:04.155Z,14.20
2022-12-23T15:03:43.612Z,14.77
2022-12-23T15:06:24.724Z,14.18
2022-12-23T15:08:56.799Z,11.82
2022-12-23T15:11:29.491Z,13.82
2022-12-23T15:14:01.547Z,13.75
2022-12-23T15:16:36.494Z,13.35
2022-12-23T15:19:22.011Z,16.05
2022-12-23T15:21:59.589Z,16.13
2022-12-23T15:24:34.740Z,10.52
2022-12-23T15:27:25.754Z,15.32
2022-12-23T15:29:55.818Z,12.90
2022-12-23T15:32:26.603Z,17.55
2022-12-23T15:35:01.282Z,13.43
2022-12-23T15:37:32.436Z,14.68
2022-12-23T15:40:13.180Z,18.92
2022-12-23T15:42:49.689Z,16.25
2022-12-23T15:45:34.134Z,14.00
2022-12-23T15:48:03.710Z,15.27
2022-12-23T15:50:42.060Z,17.17
2022-12-23T15:53:14.468Z,12.63
2022-12-23T15:55:43.808Z,19.33
2022-12-23T15:58:20.903Z,17.40
2022-12-23T16:00:55.784Z,16.85
2022-12-23T16:03:31.158Z,14.45
2022-12-23T16:06:11.545Z,16.00
2022-12-23T16:08:40.997Z,18.17
2022-12-23T16:11:17.168Z,16.05
2022-12-23T16:13:58.655Z,26.70
2022-12-23T16:16:39.423Z,16.88
2022-12-23T16:19:24.688Z,21.45
2022-12-23T16:21:55.199Z,18.30
2022-12-23T16:24:24.332Z,16.33
2022-12-23T16:26:56.308Z,26.25
2022-12-23T16:29:25.477Z,17.38
2022-12-23T16:32:01.711Z,23.67
2022-12-23T16:34:33.067Z,22.50
2022-12-23T16:37:03.483Z,26.05
2022-12-23T16:39:33.179Z,22.27
2022-12-23T16:42:03.472Z,24.45
2022-12-23T16:44:32.837Z,15.57
2022-12-23T16:47:09.238Z,17.48
2022-12-23T16:49:39.824Z,18.50
2022-12-23T16:52:14.906Z,18.85
2022-12-23T16:54:44.221Z,20.17
2022-12-23T16:57:13.345Z,17.73
2022-12-23T16:59:42.485Z,16.23
2022-12-23T17:02:22.711Z,22.45
2022-12-23T17:04:52.533Z,20.65
2022-12-23T17:07:25.102Z,14.38
2022-12-23T17:09:54.501Z,16.50
2022-12-23T17:12:23.758Z,13.07
2022-12-23T17:14:53.001Z,12.85
2022-12-23T17:17:25.814Z,14.48
2022-12-23T17:19:56.480Z,15.90
2022-12-23T17:22:27.501Z,18.33
2022-12-23T17:24:56.726Z,18.02
2022-12-23T17:27:26.376Z,22.40
2022-12-23T17:29:55.779Z,27.98
2022-12-23T17:32:25.635Z,25.98
2022-12-23T17:34:54.998Z,20.45
2022-12-23T17:37:25.881Z,21.38
2022-12-23T17:39:57.236Z,21.08
2022-12-23T17:42:26.543Z,22.55
2022-12-23T17:44:55.837Z,23.42
2022-12-23T17:47:28.593Z,19.17
2022-12-23T17:49:57.692Z,23.23
2022-12-23T17:52:28.325Z,24.83
2022-12-23T17:54:57.709Z,21.20
2022-12-23T17:57:28.328Z,22.80
2022-12-23T17:59:57.697Z,24.40
2022-12-23T18:02:28.411Z,20.23
2022-12-23T18:04:57.823Z,27.90
2022-12-23T18:07:28.527Z,38.22
2022-12-23T18:09:57.544Z,28.33
2022-12-23T18:12:34.266Z,25.73
2022-12-23T18:15:04.192Z,28.60
2022-12-23T18:17:33.604Z,28.63
2022-12-23T18:20:02.865Z,23.20
2022-12-23T18:22:33.651Z,28.35
2022-12-23T18:25:02.729Z,25.70
2022-12-23T18:27:31.842Z,27.27
2022-12-23T18:30:00.960Z,26.50
2022-12-23T18:32:30.719Z,30.77
2022-12-23T18:34:59.958Z,27.70
2022-12-23T18:37:29.430Z,35.50
2022-12-23T18:40:00.113Z,30.58
2022-12-23T18:42:29.477Z,27.83
2022-12-23T18:44:58.665Z,28.05
2022-12-23T18:47:27.783Z,25.48
2022-12-23T18:49:56.878Z,40.45
2022-12-23T18:52:26.487Z,38.22
2022-12-23T18:54:56.392Z,30.77
2022-12-23T18:57:26.944Z,35.53
2022-12-23T18:59:56.054Z,37.50
2022-12-23T19:02:25.176Z,31.38
2022-12-23T19:04:54.442Z,29.70
2022-12-23T19:07:23.651Z,26.30
2022-12-23T19:09:52.899Z,26.88
2022-12-23T19:12:22.083Z,33.78
2022-12-23T19:14:52.746Z,27.33
2022-12-23T19:17:21.998Z,29.23
2022-12-23T19:19:51.090Z,24.17
2022-12-23T19:22:20.370Z,27.35
2022-12-23T19:25:04.517Z,23.10
2022-12-23T19:27:34.989Z,25.00
2022-12-23T19:30:06.348Z,27.30
2022-12-23T19:32:35.941Z,32.20
2022-12-23T19:35:05.255Z,29.20
2022-12-23T19:37:34.822Z,28.42
2022-12-23T19:40:04.122Z,26.05
2022-12-23T19:42:33.946Z,39.78
2022-12-23T19:45:04.726Z,34.10
2022-12-23T19:47:33.930Z,40.72
2022-12-23T19:50:03.091Z,31.67
2022-12-23T19:52:32.377Z,35.10
2022-12-23T19:55:01.750Z,42.40
2022-12-23T19:57:31.754Z,31.25
2022-12-23T20:00:02.320Z,29.80
2022-12-23T20:02:42.747Z,33.10
2022-12-23T20:05:12.079Z,29.38
2022-12-23T20:07:41.571Z,29.83
2022-12-23T20:10:11.750Z,33.80
2022-12-23T20:12:41.382Z,28.45
2022-12-23T20:15:11.641Z,28.67
2022-12-23T20:17:42.262Z,31.33
2022-12-23T20:20:12.013Z,33.35
2022-12-23T20:22:41.197Z,27.30
2022-12-23T20:25:10.904Z,29.27
2022-12-23T20:27:44.964Z,28.65
2022-12-23T20:30:14.204Z,24.15
2022-12-23T20:32:44.701Z,27.25
2022-12-23T20:35:14.018Z,30.75
2022-12-23T20:37:43.056Z,28.80
2022-12-23T20:40:14.703Z,24.05
2022-12-23T20:42:43.794Z,27.25
2022-12-23T20:45:13.689Z,33.60
2022-12-23T20:47:44.337Z,26.48
2022-12-23T20:50:13.442Z,27.45
2022-12-23T20:52:42.590Z,21.67
2022-12-23T20:55:12.202Z,28.13
2022-12-23T20:57:41.888Z,27.70
2022-12-23T21:00:12.361Z,20.92
2022-12-23T21:02:41.995Z,28.20
2022-12-23T21:05:12.799Z,28.77
2022-12-23T21:07:42.008Z,27.08
2022-12-23T21:10:11.862Z,18.27
2022-12-23T21:12:41.210Z,25.10
2022-12-23T21:15:10.945Z,22.55
2022-12-23T21:17:40.044Z,29.13
2022-12-23T21:20:12.114Z,24.38
2022-12-23T21:22:41.395Z,22.08
2022-12-23T21:25:11.407Z,18.58
2022-12-23T21:27:41.705Z,20.90
2022-12-23T21:30:11.792Z,21.90
2022-12-23T21:32:49.674Z,23.08
2022-12-23T21:35:34.721Z,19.85
2022-12-23T21:38:22.682Z,19.30
2022-12-23T21:40:51.768Z,18.73
2022-12-23T21:43:20.865Z,25.20
2022-12-23T21:45:58.682Z,21.23
2022-12-23T21:48:29.973Z,21.40
2022-12-23T21:51:08.193Z,17.40
2022-12-23T21:53:38.731Z,24.25
2022-12-23T21:56:10.275Z,22.33
2022-12-23T21:58:39.860Z,23.65
2022-12-23T22:01:09.825Z,36.25
2022-12-23T22:03:39.058Z,24.00
2022-12-23T22:06:11.906Z,15.15
2022-12-23T22:08:42.038Z,17.33
2022-12-23T22:11:13.567Z,18.98
2022-12-23T22:13:43.293Z,17.98
2022-12-23T22:16:14.652Z,15.95
2022-12-23T22:18:45.126Z,13.10
2022-12-23T22:21:18.952Z,15.38
2022-12-23T22:23:48.934Z,12.25
2022-12-23T22:26:24.508Z,15.30
2022-12-23T22:28:55.462Z,18.88
2022-12-23T22:31:32.279Z,14.73
2022-12-23T22:34:01.480Z,13.02
2022-12-23T22:36:32.093Z,11.63
2022-12-23T22:39:02.773Z,11.88
2022-12-23T22:41:32.755Z,10.13
2022-12-23T22:44:02.095Z,11.23
2022-12-23T22:46:31.663Z,16.33
2022-12-23T22:49:00.883Z,8.77
2022-12-23T22:51:32.484Z,12.38
2022-12-23T22:54:03.659Z,10.23
2022-12-23T22:56:32.895Z,16.30
2022-12-23T22:59:02.010Z,10.93
2022-12-23T23:01:32.649Z,6.93
2022-12-23T23:04:04.042Z,13.80
2022-12-23T23:06:37.890Z,11.88
2022-12-23T23:09:08.604Z,11.65
2022-12-23T23:11:38.052Z,9.88
2022-12-23T23:14:07.569Z,8.50
2022-12-23T23:16:36.873Z,14.55
2022-12-23T23:19:09.169Z,6.97
2022-12-23T23:21:39.817Z,9.23
2022-12-23T23:24:12.015Z,16.02
2022-12-23T23:26:41.171Z,10.95
2022-12-23T23:29:10.261Z,11.40
2022-12-23T23:31:42.341Z,11.18
2022-12-23T23:34:12.561Z,12.38
2022-12-23T23:36:43.294Z,10.63
2022-12-23T23:39:14.310Z,10.73
2022-12-23T23:41:43.483Z,14.48
2022-12-23T23:44:13.292Z,11.40
2022-12-23T23:46:43.620Z,10.90
2022-12-23T23:49:12.677Z,8.70
2022-12-23T23:51:43.674Z,9.77
2022-12-23T23:54:13.429Z,13.82
2022-12-23T23:56:42.692Z,14.77
2022-12-23T23:59:11.969Z,11.13
